createdAt,value
2023-01-02T07:40:13.833Z,16.10
2023-01-02T07:42:22.158Z,16.10
2023-01-02T07:44:28.668Z,16.20
2023-01-02T07:46:36.220Z,16.20
2023-01-02T07:48:42.114Z,16.20
2023-01-02T07:50:50.670Z,16.20
2023-01-02T07:52:54.366Z,16.30
2023-01-02T07:55:00.052Z,16.30
2023-01-02T07:57:05.597Z,16.30
2023-01-02T07:59:11.916Z,16.30
2023-01-02T08:08:18.395Z,16.20
2023-01-02T08:10:21.873Z,16.30
2023-01-02T08:12:28.770Z,16.30
2023-01-02T08:14:35.150Z,16.30
2023-01-02T11:53:58.863Z,16.00
2023-01-02T12:01:28.927Z,16.10
2023-01-02T12:03:38.529Z,16.20
2023-01-02T12:05:50.192Z,16.20
2023-01-02T12:08:00.197Z,16.20
2023-01-02T12:10:08.033Z,16.20
2023-01-02T12:12:27.766Z,16.30
2023-01-02T12:14:42.678Z,16.20
2023-01-02T12:16:53.706Z,16.20
2023-01-02T12:19:16.512Z,16.20
2023-01-02T12:21:27.666Z,16.10
2023-01-02T12:24:13.980Z,16.10
2023-01-02T12:26:38.855Z,16.20
2023-01-02T12:29:00.316Z,16.20
2023-01-02T12:46:28.148Z,16.70
2023-01-02T12:48:51.366Z,16.60
2023-01-02T12:51:19.502Z,16.60
2023-01-02T12:53:37.936Z,16.50
2023-01-02T12:56:01.603Z,16.40
2023-01-02T12:58:09.418Z,16.40
2023-01-02T13:01:01.240Z,16.40
2023-01-02T13:03:30.598Z,16.40
2023-01-02T13:05:37.643Z,16.20
2023-01-02T13:07:44.379Z,16.20
2023-01-02T13:10:01.551Z,16.10
2023-01-02T13:12:19.797Z,16.00
2023-01-02T13:14:30.501Z,16.00
2023-01-02T16:02:46.783Z,14.90
2023-01-02T16:05:13.328Z,14.90
2023-01-02T16:07:28.088Z,14.80
2023-01-02T16:09:44.674Z,14.80
2023-01-02T16:14:34.368Z,14.70
2023-01-02T16:16:48.611Z,14.70
2023-01-02T16:19:28.148Z,14.70
2023-01-02T16:21:35.839Z,14.70
2023-01-02T16:23:44.824Z,14.60
2023-01-02T16:25:53.685Z,14.60
2023-01-02T16:28:36.091Z,14.60
2023-01-02T16:30:48.699Z,14.50
2023-01-02T16:32:54.103Z,14.50
2023-01-02T16:35:27.215Z,14.50
2023-01-02T16:37:40.917Z,14.50
2023-01-02T16:39:52.182Z,14.60
2023-01-02T16:42:16.922Z,14.60
2023-01-02T16:44:24.195Z,14.60
2023-01-02T16:46:34.014Z,14.60
2023-01-02T16:48:38.334Z,14.60
2023-01-02T16:50:50.785Z,14.60
2023-01-02T16:53:06.869Z,14.50
2023-01-02T16:55:23.583Z,14.60
2023-01-02T16:57:33.746Z,14.50
2023-01-02T16:59:42.053Z,14.50
2023-01-02T17:01:52.845Z,14.50
2023-01-02T17:04:13.990Z,14.50
2023-01-02T17:06:25.671Z,14.50
2023-01-02T17:08:47.835Z,14.50
2023-01-02T17:11:01.742Z,14.50
2023-01-02T17:13:14.975Z,14.50
2023-01-02T17:15:22.393Z,14.50
2023-01-02T17:17:53.047Z,14.50
2023-01-02T17:20:01.985Z,14.50
2023-01-02T17:22:13.295Z,14.50
2023-01-02T17:24:22.021Z,14.50
2023-01-02T17:26:58.280Z,14.50
2023-01-02T17:29:06.244Z,14.50
2023-01-02T17:31:34.109Z,14.40
2023-01-02T17:33:43.387Z,14.40
2023-01-02T17:36:07.105Z,14.40
2023-01-02T17:38:20.515Z,14.40
2023-01-02T17:40:31.772Z,14.40
2023-01-02T17:42:40.323Z,14.40
2023-01-02T17:44:59.410Z,14.50
2023-01-02T17:49:51.125Z,14.50
2023-01-02T17:52:04.195Z,14.50
2023-01-02T17:54:17.373Z,14.50
2023-01-02T17:56:33.426Z,14.60
2023-01-02T17:58:45.914Z,14.60
2023-01-02T18:00:54.060Z,14.60
2023-01-02T18:03:02.851Z,14.50
2023-01-02T18:05:19.844Z,14.50
2023-01-02T18:07:31.537Z,14.40
2023-01-02T18:10:08.580Z,14.30
2023-01-02T18:12:15.536Z,14.20
2023-01-02T18:14:26.810Z,14.10
